Time;durP1;ratioP1;P1;durP2;ratioP2;P2;SDS_P1;SDS_P2;PMS_P1;PMS_P2;Temp;Humidity;BMP_temperature;BMP_pressure;BME280_temperature;BME280_humidity;BME280_pressure;Samples;Min_cycle;Max_cycle;Signal;HPM_P1;HPM_P2
2022/06/28 00:00:55;;;;;;;7.83;7.43;;;;;;;12.91;100.00;65535.13;5112848;28;20633;-71
2022/06/28 00:03:21;;;;;;;7.33;6.67;;;;;;;;;;5115025;28;20213;-71
2022/06/28 00:05:48;;;;;;;6.77;6.20;;;;;;;;;;5113647;28;20201;-71
2022/06/28 00:08:14;;;;;;;5.70;5.57;;;;;;;12.85;100.00;65522.69;5114615;28;20625;-71
2022/06/28 00:10:41;;;;;;;7.07;6.60;;;;;;;;;;5114035;28;20185;-71
2022/06/28 00:13:07;;;;;;;7.50;7.00;;;;;;;12.87;100.00;65522.88;5114945;28;20615;-71
2022/06/28 00:18:19;;;;;;;6.67;6.37;;;;;;;12.67;100.00;65509.03;5114469;28;20278;-71
2022/06/28 00:20:45;;;;;;;7.07;6.97;;;;;;;12.67;100.00;65503.28;5114058;28;20209;-71
2022/06/28 00:23:11;;;;;;;8.87;8.57;;;;;;;12.67;100.00;65503.28;5114641;28;20284;-71
2022/06/28 00:25:38;;;;;;;7.17;6.80;;;;;;;12.71;100.00;65505.09;5113964;28;20204;-71
2022/06/28 00:28:04;;;;;;;7.97;7.53;;;;;;;;;;5115408;28;20189;-71
2022/06/28 00:30:31;;;;;;;6.43;6.33;;;;;;;;;;5111872;28;20603;-71
2022/06/28 00:32:57;;;;;;;5.93;5.80;;;;;;;12.54;100.00;65486.78;5096287;28;20213;-71
2022/06/28 00:35:24;;;;;;;10.90;6.37;;;;;;;12.47;100.00;65473.81;5095835;28;20667;-71
2022/06/28 00:37:51;;;;;;;6.33;6.23;;;;;;;12.38;100.00;65474.78;5114520;28;20193;-71
2022/06/28 00:40:17;;;;;;;6.23;6.10;;;;;;;12.37;100.00;65486.69;5083597;28;20262;-72
2022/06/28 00:42:44;;;;;;;7.47;7.17;;;;;;;;;;5075835;28;20252;-72
2022/06/28 00:45:11;;;;;;;7.87;7.67;;;;;;;;;;5103623;28;20213;-71
2022/06/28 00:47:39;;;;;;;7.33;7.00;;;;;;;12.51;100.00;65486.06;5114827;28;20216;-71
2022/06/28 00:50:06;;;;;;;7.17;6.97;;;;;;;12.46;100.00;65480.50;5096323;28;20531;-71
2022/06/28 00:52:33;;;;;;;9.10;6.30;;;;;;;12.32;100.00;65462.38;5095943;28;20213;-71
2022/06/28 00:54:59;;;;;;;7.17;6.87;;;;;;;;;;5112881;28;20193;-71
2022/06/28 00:57:26;;;;;;;6.90;6.77;;;;;;;;;;5096574;28;20215;-71
2022/06/28 00:59:52;;;;;;;8.63;8.13;;;;;;;12.37;100.00;65471.09;5114855;28;20181;-72
2022/06/28 01:02:19;;;;;;;7.53;7.23;;;;;;;12.37;100.00;65470.53;5114188;28;20240;-73
2022/06/28 01:04:46;;;;;;;8.53;8.13;;;;;;;12.41;100.00;65467.16;5095143;28;20671;-71
2022/06/28 01:07:13;;;;;;;7.70;7.40;;;;;;;12.44;100.00;65469.94;5095031;28;20229;-71
2022/06/28 01:09:40;;;;;;;6.97;6.57;;;;;;;12.47;100.00;65479.03;5095733;28;20185;-71
2022/06/28 01:12:07;;;;;;;7.07;6.87;;;;;;;12.47;100.00;65479.03;5095018;28;20690;-71
2022/06/28 01:14:35;;;;;;;8.10;7.47;;;;;;;12.47;100.00;65473.81;5095378;28;20659;-71
2022/06/28 01:17:11;;;;;;;6.77;6.67;;;;;;;12.42;100.00;65475.50;5095932;28;20557;-72
2022/06/28 01:19:46;;;;;;;6.93;6.57;;;;;;;12.38;100.00;65474.78;5096223;28;20532;-72
2022/06/28 01:22:40;;;;;;;6.97;6.67;;;;;;;;;;5074940;28;20263;-71
2022/06/28 01:25:10;;;;;;;7.20;6.70;;;;;;;12.23;100.00;65455.00;5091310;28;20185;-71
2022/06/28 01:27:40;;;;;;;7.57;7.20;;;;;;;12.26;100.00;65473.94;5095814;28;20196;-71
2022/06/28 01:30:08;;;;;;;7.07;6.87;;;;;;;;;;5113780;28;20220;-71
2022/06/28 01:32:52;;;;;;;6.97;6.67;;;;;;;12.31;100.00;65469.63;5088732;28;20251;-71
2022/06/28 01:35:19;;;;;;;6.80;6.60;;;;;;;12.35;100.00;65466.25;5086567;28;20196;-71
2022/06/28 01:37:49;;;;;;;6.50;6.40;;;;;;;12.37;100.00;65471.09;5095760;28;20196;-71
2022/06/28 01:40:18;;;;;;;7.50;7.20;;;;;;;12.40;100.00;65489.47;5095574;28;20565;-71
2022/06/28 01:42:47;;;;;;;6.83;6.73;;;;;;;;;;5094520;28;20222;-71
2022/06/28 01:45:14;;;;;;;8.10;7.50;;;;;;;;;;5112115;28;20239;-71
2022/06/28 01:47:44;;;;;;;7.70;7.30;;;;;;;12.38;100.00;65469.03;5095605;28;20275;-71
2022/06/28 01:50:52;;;;;;;7.43;6.97;;;;;;;12.43;100.00;65479.81;5095570;28;20284;-71
2022/06/28 01:53:20;;;;;;;8.37;7.83;;;;;;;;;;5094561;28;20252;-71
2022/06/28 01:56:01;;;;;;;7.43;7.13;;;;;;;;;;5114742;28;20184;-71
2022/06/28 01:58:48;;;;;;;7.47;7.27;;;;;;;12.40;100.00;65479.06;5105975;28;20193;-71
2022/06/28 02:01:15;;;;;;;7.27;7.17;;;;;;;12.38;100.00;65472.19;5099232;28;20224;-71
2022/06/28 02:03:43;;;;;;;6.43;6.23;;;;;;;;;;5099615;28;20213;-71
2022/06/28 02:06:20;;;;;;;6.93;6.57;;;;;;;12.26;100.00;65458.88;5094768;28;20216;-71
2022/06/28 02:08:47;;;;;;;6.97;6.77;;;;;;;;;;5099024;28;20196;-71
2022/06/28 02:11:20;;;;;;;7.17;6.77;;;;;;;;;;5098646;28;20238;-71
2022/06/28 02:13:50;;;;;;;6.83;6.70;;;;;;;;;;5097390;28;20272;-71
2022/06/28 02:16:16;;;;;;;6.90;6.60;;;;;;;12.30;100.00;65460.72;5099201;28;20197;-72
2022/06/28 02:18:43;;;;;;;6.27;6.17;;;;;;;12.31;100.00;65467.03;5097610;28;20185;-72
2022/06/28 02:21:11;;;;;;;7.30;7.10;;;;;;;;;;5116674;28;20228;-71
2022/06/28 02:23:37;;;;;;;6.90;6.50;;;;;;;;;;5097983;28;20213;-71
2022/06/28 02:26:04;;;;;;;7.27;6.83;;;;;;;12.36;100.00;65469.41;5116891;28;20591;-71
2022/06/28 02:28:30;;;;;;;7.73;7.43;;;;;;;;;;5116157;28;20204;-72
2022/06/28 02:30:57;;;;;;;7.83;7.37;;;;;;;12.36;100.00;65475.19;5098063;28;20188;-71
2022/06/28 02:33:23;;;;;;;9.10;8.70;;;;;;;12.36;100.00;65461.63;5098543;28;20228;-71
2022/06/28 02:41:24;;;;;;;6.53;6.43;;;;;;;12.31;100.00;65461.25;5097837;28;20682;-71
2022/06/28 02:43:50;;;;;;;8.57;7.87;;;;;;;12.29;100.00;65459.59;5115792;28;20189;-70
2022/06/28 02:46:17;;;;;;;8.10;7.37;;;;;;;12.25;100.00;65465.00;5078050;28;20201;-70
2022/06/28 02:48:43;;;;;;;8.47;8.00;;;;;;;12.24;100.00;65456.09;5089381;28;20189;-70
2022/06/28 02:51:09;;;;;;;7.60;6.87;;;;;;;12.21;100.00;65455.34;5098485;28;20200;-70
2022/06/28 02:53:37;;;;;;;8.07;7.87;;;;;;;;;;5116084;28;20209;-70
2022/06/28 02:56:04;;;;;;;7.07;6.77;;;;;;;12.13;100.00;65436.63;5097443;28;20707;-70
2022/06/28 02:58:31;;;;;;;6.83;6.53;;;;;;;12.12;100.00;65443.88;5115982;28;20189;-70
2022/06/28 03:00:58;;;;;;;7.63;7.43;;;;;;;12.16;100.00;65444.63;5097989;28;20300;-70
2022/06/28 03:03:25;;;;;;;8.20;7.47;;;;;;;12.17;100.00;65438.47;5098295;28;20213;-70
2022/06/28 03:05:52;;;;;;;8.50;7.83;;;;;;;12.20;100.00;65451.66;5080375;28;20201;-70
2022/06/28 03:08:18;;;;;;;7.37;7.10;;;;;;;12.11;100.00;65432.38;5104109;28;20196;-70
2022/06/28 03:10:45;;;;;;;7.80;7.40;;;;;;;12.05;100.00;65435.56;5116191;28;20184;-70
2022/06/28 03:13:11;;;;;;;6.93;6.80;;;;;;;11.98;100.00;65420.53;5115448;28;20232;-70
2022/06/28 03:15:38;;;;;;;7.73;7.00;;;;;;;11.88;100.00;65417.25;5114079;28;20193;-70
2022/06/28 03:18:04;;;;;;;8.30;7.50;;;;;;;;;;5116307;28;20518;-70
2022/06/28 03:20:32;;;;;;;6.43;6.23;;;;;;;11.74;100.00;65399.09;5098156;28;20193;-70
2022/06/28 03:22:58;;;;;;;7.43;6.77;;;;;;;11.69;100.00;65401.91;5098476;28;20560;-70
2022/06/28 03:25:26;;;;;;;6.60;6.17;;;;;;;11.65;100.00;65392.28;5095777;28;20197;-71
2022/06/28 03:27:53;;;;;;;6.47;6.27;;;;;;;11.63;100.00;65390.03;5116334;28;20185;-72
2022/06/28 03:30:19;;;;;;;6.03;5.77;;;;;;;11.63;100.00;65389.47;5097551;28;20566;-72
2022/06/28 03:32:46;;;;;;;6.50;6.10;;;;;;;11.61;100.00;65392.47;5097348;28;20291;-72
2022/06/28 03:35:19;;;;;;;7.80;7.20;;;;;;;;;;5096188;28;20196;-71
2022/06/28 03:37:46;;;;;;;5.90;5.80;;;;;;;;;;5093628;28;20631;-71
2022/06/28 03:40:13;;;;;;;7.03;6.57;;;;;;;11.44;100.00;65366.94;5097065;28;20231;-71
2022/06/28 03:42:45;;;;;;;6.87;6.57;;;;;;;11.47;100.00;65372.28;5096831;28;20586;-71
2022/06/28 03:45:12;;;;;;;7.47;6.70;;;;;;;11.41;100.00;65366.19;5095538;28;20189;-71
2022/06/28 03:47:42;;;;;;;7.03;6.90;;;;;;;11.41;100.00;65366.19;5097469;28;20194;-71
2022/06/28 03:50:31;;;;;;;7.90;7.20;;;;;;;11.35;100.00;65361.56;5114653;28;20204;-71
2022/06/28 03:53:21;;;;;;;8.03;7.47;;;;;;;11.32;100.00;65361.41;5114449;28;20232;-71
2022/06/28 03:56:08;;;;;;;10.00;8.83;;;;;;;11.25;100.00;65362.00;5102080;28;20199;-71
2022/06/28 03:58:35;;;;;;;9.57;8.73;;;;;;;11.29;100.00;65352.91;5097325;28;20185;-71
2022/06/28 04:01:02;;;;;;;8.70;8.00;;;;;;;11.17;100.00;65345.34;5084314;28;20198;-71
2022/06/28 04:03:29;;;;;;;8.57;7.80;;;;;;;11.18;100.00;65338.66;5093425;28;20213;-71
2022/06/28 04:05:55;;;;;;;9.63;8.90;;;;;;;11.25;100.00;65348.44;5078685;28;20202;-71
2022/06/28 04:08:22;;;;;;;7.90;7.57;;;;;;;11.24;100.00;65347.91;5076434;28;20189;-71
2022/06/28 04:11:13;;;;;;;7.73;7.33;;;;;;;11.28;100.00;65349.16;5076402;28;20273;-71
2022/06/28 04:13:52;;;;;;;9.30;8.80;;;;;;;11.34;100.00;65366.22;5077916;28;20220;-71
2022/06/28 04:16:20;;;;;;;8.83;8.43;;;;;;;11.37;100.00;65361.22;5095055;28;20317;-71
2022/06/28 04:18:48;;;;;;;8.20;7.93;;;;;;;11.45;100.00;65368.03;5096424;28;20193;-71
2022/06/28 04:21:24;;;;;;;8.67;7.80;;;;;;;11.44;100.00;65369.53;5096446;28;20213;-71
2022/06/28 04:24:13;;;;;;;8.90;8.20;;;;;;;;;;5096240;28;20607;-71
2022/06/28 04:26:55;;;;;;;10.50;9.67;;;;;;;11.67;100.00;65399.13;5095787;28;20569;-71
2022/06/28 04:29:24;;;;;;;9.33;8.73;;;;;;;;;;5096425;28;20193;-71
2022/06/28 04:31:51;;;;;;;10.10;9.40;;;;;;;11.87;100.00;65416.16;5115001;28;20200;-71
2022/06/28 04:34:18;;;;;;;10.43;9.97;;;;;;;11.96;100.00;65425.56;5094299;28;20667;-71
2022/06/28 04:36:48;;;;;;;11.73;9.90;;;;;;;12.02;100.00;65432.78;5095709;28;20197;-71
2022/06/28 04:39:15;;;;;;;10.20;9.40;;;;;;;12.15;100.00;65457.06;5095417;28;20195;-70
2022/06/28 04:42:00;;;;;;;10.17;9.17;;;;;;;12.34;100.00;65459.94;5096570;28;20244;-70
2022/06/28 04:44:29;;;;;;;12.33;10.17;;;;;;;;;;5108135;28;20239;-70
2022/06/28 04:46:56;;;;;;;10.10;9.20;;;;;;;12.59;100.00;65486.59;5095797;28;20192;-72
2022/06/28 04:49:26;;;;;;;9.40;9.00;;;;;;;12.72;100.00;65505.69;5089146;28;20189;-71
2022/06/28 04:51:56;;;;;;;8.60;7.90;;;;;;;12.80;100.00;65509.91;5092858;28;20781;-71
2022/06/28 04:54:32;;;;;;;9.80;9.03;;;;;;;12.89;100.00;65529.75;5096536;28;20242;-71
2022/06/28 04:57:24;;;;;;;8.43;8.07;;;;;;;;;;5076562;28;20643;-71
2022/06/28 05:00:08;;;;;;;8.03;7.53;;;;;;;13.06;100.00;65551.25;5075937;28;20194;-70
2022/06/28 05:02:39;;;;;;;8.70;8.03;;;;;;;13.18;100.00;65551.53;5094436;28;20213;-71
2022/06/28 05:05:18;;;;;;;7.90;7.47;;;;;;;13.24;100.00;65564.94;5094768;28;20536;-71
2022/06/28 05:07:45;;;;;;;7.47;7.00;;;;;;;13.34;100.00;65568.78;5095577;28;20189;-71
2022/06/28 05:10:18;;;;;;;7.50;6.93;;;;;;;13.45;100.00;65581.00;5096516;28;20182;-71
2022/06/28 05:12:58;;;;;;;8.73;8.00;;;;;;;;;;5094804;28;20201;-71
2022/06/28 05:15:25;;;;;;;7.20;6.90;;;;;;;;;;5112983;28;20189;-71
2022/06/28 05:18:05;;;;;;;7.63;7.03;;;;;;;13.80;100.00;65618.25;5095645;28;20203;-71
2022/06/28 05:20:31;;;;;;;6.93;6.63;;;;;;;;;;5095326;28;20197;-71
2022/06/28 05:22:58;;;;;;;6.93;6.53;;;;;;;13.95;100.00;65640.13;5113165;28;20614;-71
2022/06/28 05:25:59;;;;;;;6.30;6.10;;;;;;;14.07;100.00;65658.13;5113559;28;20692;-71
2022/06/28 05:28:26;;;;;;;6.97;6.30;;;;;;;14.18;100.00;65659.94;5095466;28;20208;-71
2022/06/28 05:30:54;;;;;;;6.10;5.80;;;;;;;14.25;100.00;65668.25;5112029;28;20184;-71
2022/06/28 05:33:21;;;;;;;7.97;7.27;;;;;;;;;;5112846;28;20706;-71
2022/06/28 05:35:47;;;;;;;5.90;5.73;;;;;;;14.45;100.00;65697.22;5112467;28;20197;-71
2022/06/28 05:38:13;;;;;;;4.47;4.37;;;;;;;14.52;100.00;65702.44;5094655;28;20201;-71
2022/06/28 05:40:40;;;;;;;5.63;5.43;;;;;;;14.64;100.00;65723.59;5112882;28;20651;-71
2022/06/28 05:43:07;;;;;;;5.77;4.73;;;;;;;14.72;100.00;65729.34;5095246;28;20217;-71
2022/06/28 05:45:34;;;;;;;4.73;4.43;;;;;;;;;;5095330;28;20586;-71
2022/06/28 05:48:00;;;;;;;5.23;4.93;;;;;;;14.83;100.00;65738.97;5094105;28;20189;-71
2022/06/28 05:50:28;;;;;;;4.70;4.40;;;;;;;14.91;100.00;65744.69;5093220;28;20197;-70
2022/06/28 05:52:54;;;;;;;4.90;4.63;;;;;;;;;;5113492;28;20285;-71
2022/06/28 05:55:21;;;;;;;5.13;4.90;;;;;;;;;;5112812;28;20197;-71
2022/06/28 05:57:48;;;;;;;4.10;4.00;;;;;;;14.96;100.00;65750.25;5096037;28;20242;-71
2022/06/28 06:00:16;;;;;;;4.93;4.63;;;;;;;15.04;100.00;65764.94;5093237;28;20226;-71
2022/06/28 06:02:43;;;;;;;4.00;4.00;;;;;;;15.07;100.00;65762.50;5094959;28;20270;-71
2022/06/28 06:05:09;;;;;;;4.10;4.10;;;;;;;;;;5093745;28;20247;-69
2022/06/28 06:07:43;;;;;;;4.63;4.47;;;;;;;;;;5088454;28;20716;-71
2022/06/28 06:10:10;;;;;;;3.77;3.57;;;;;;;15.27;100.00;65776.34;5095159;28;20185;-71
2022/06/28 06:12:36;;;;;;;4.03;3.93;;;;;;;;;;5113537;28;20197;-71
2022/06/28 06:15:04;;;;;;;7.63;4.17;;;;;;;15.42;100.00;65795.66;5112632;28;20653;-70
2022/06/28 06:17:30;;;;;;;5.07;4.57;;;;;;;15.42;100.00;65795.66;5094052;28;20189;-70
2022/06/28 06:19:57;;;;;;;4.33;4.33;;;;;;;;;;5093964;28;20586;-71
2022/06/28 06:22:23;;;;;;;4.60;4.30;;;;;;;;;;5094077;28;20217;-71
2022/06/28 06:24:50;;;;;;;6.20;5.47;;;;;;;15.64;100.00;65817.00;5095051;28;20234;-71
2022/06/28 06:27:27;;;;;;;5.53;5.03;;;;;;;15.76;100.00;65832.41;5094990;28;20194;-72
2022/06/28 06:29:54;;;;;;;4.83;4.73;;;;;;;;;;5093974;28;20193;-71
2022/06/28 06:32:33;;;;;;;6.67;5.93;;;;;;;;;;5094527;28;20581;-71
2022/06/28 06:35:20;;;;;;;8.17;5.80;;;;;;;15.81;100.00;65843.78;5110720;28;20193;-71
2022/06/28 06:37:47;;;;;;;6.10;5.70;;;;;;;15.87;100.00;65842.06;5095625;28;20192;-71
2022/06/28 06:40:14;;;;;;;6.50;5.87;;;;;;;15.88;100.00;65845.78;5094761;28;20200;-72
2022/06/28 06:42:40;;;;;;;6.67;6.07;;;;;;;;;;5113542;28;20201;-71
2022/06/28 06:45:11;;;;;;;5.53;5.23;;;;;;;;;;5088923;28;20190;-70
2022/06/28 06:47:38;;;;;;;9.70;5.57;;;;;;;;;;5094992;28;20236;-71
2022/06/28 06:50:08;;;;;;;5.47;5.03;;;;;;;16.11;100.00;65878.69;5095964;28;20225;-71
2022/06/28 06:52:36;;;;;;;13.70;5.77;;;;;;;16.16;100.00;65886.88;5078869;28;20262;-70
2022/06/28 06:55:05;;;;;;;6.47;5.77;;;;;;;16.22;100.00;65883.09;5091610;28;20186;-71
2022/06/28 06:57:31;;;;;;;5.83;5.37;;;;;;;16.27;100.00;65885.47;5096026;28;20213;-71
2022/06/28 06:59:58;;;;;;;5.87;5.30;;;;;;;16.39;100.00;65906.72;5077829;28;20194;-71
2022/06/28 07:02:24;;;;;;;4.97;4.63;;;;;;;16.63;100.00;65933.44;5096359;28;20220;-71
2022/06/28 07:04:55;;;;;;;6.53;5.73;;;;;;;16.62;100.00;65932.34;5098359;28;20577;-71
2022/06/28 07:07:22;;;;;;;11.97;4.93;;;;;;;;;;5098221;28;20641;-71
2022/06/28 07:09:50;;;;;;;5.77;4.30;;;;;;;;;;5097050;28;20291;-70
2022/06/28 07:12:17;;;;;;;6.10;5.70;;;;;;;16.62;99.95;65924.47;5084802;28;20309;-71
2022/06/28 07:14:43;;;;;;;5.23;4.27;;;;;;;16.73;100.00;65946.69;5093854;28;20206;-70
2022/06/28 07:17:12;;;;;;;12.33;4.53;;;;;;;16.85;100.00;65960.06;5094356;28;20656;-71
2022/06/28 07:19:39;;;;;;;6.67;5.03;;;;;;;16.73;95.91;65938.81;5111021;28;20193;-71
2022/06/28 07:22:07;;;;;;;8.30;4.13;;;;;;;16.74;96.43;65940.50;5096990;28;20216;-71
2022/06/28 07:24:35;;;;;;;4.00;3.77;;;;;;;16.84;97.84;65947.91;5097903;28;20197;-71
2022/06/28 07:27:03;;;;;;;4.80;4.37;;;;;;;16.92;97.80;65967.28;5098785;28;20581;-71
2022/06/28 07:29:29;;;;;;;6.83;4.90;;;;;;;16.97;96.28;65972.88;5087088;28;20247;-71
2022/06/28 07:31:56;;;;;;;3.83;3.63;;;;;;;;;;5095508;28;20227;-71
2022/06/28 07:34:23;;;;;;;4.63;3.47;;;;;;;16.89;94.34;65961.34;5094139;28;20277;-71
2022/06/28 07:36:50;;;;;;;8.60;3.87;;;;;;;17.08;94.08;65984.59;5082598;28;20185;-71
2022/06/28 07:39:18;;;;;;;2.83;2.73;;;;;;;17.07;91.65;65981.38;5087805;28;20194;-71
2022/06/28 07:42:03;;;;;;;3.40;2.93;;;;;;;;;;5104981;28;20270;-71
2022/06/28 07:44:50;;;;;;;5.60;4.27;;;;;;;;;;5116172;27;20201;-70
2022/06/28 07:47:16;;;;;;;8.97;3.37;;;;;;;;;;5105698;28;20228;-72
2022/06/28 07:52:34;;;;;;;6.33;3.40;;;;;;;17.29;90.11;66000.13;5114811;28;20266;-71
2022/06/28 07:55:07;;;;;;;7.40;3.17;;;;;;;17.38;91.13;66009.59;5096765;28;20188;-71
2022/06/28 07:57:48;;;;;;;3.50;2.87;;;;;;;17.40;89.64;66011.81;5106288;28;20599;-70
2022/06/28 08:00:19;;;;;;;3.17;3.07;;;;;;;17.41;91.67;66013.50;5095992;28;21017;-71
2022/06/28 08:02:55;;;;;;;3.70;3.10;;;;;;;17.49;89.72;66019.22;5096668;28;20213;-71
2022/06/28 08:05:22;;;;;;;4.20;2.90;;;;;;;17.57;90.17;66031.34;5089786;28;20209;-70
2022/06/28 08:07:49;;;;;;;7.03;3.23;;;;;;;17.57;89.50;66036.59;5095731;28;20189;-71
2022/06/28 08:10:16;;;;;;;3.13;2.83;;;;;;;;;;5083106;28;20220;-71
2022/06/28 08:12:43;;;;;;;2.37;2.37;;;;;;;17.80;86.96;66053.84;5093577;28;20557;-71
2022/06/28 08:15:10;;;;;;;3.47;2.87;;;;;;;;;;5090507;28;20288;-70
2022/06/28 08:17:37;;;;;;;3.47;3.27;;;;;;;;;;5087786;28;20197;-70
2022/06/28 08:20:04;;;;;;;3.13;2.97;;;;;;;17.69;88.68;66052.03;5092868;28;20317;-71
2022/06/28 08:22:31;;;;;;;3.63;2.67;;;;;;;;;;5094734;28;20215;-71
2022/06/28 08:24:57;;;;;;;12.43;3.10;;;;;;;;;;5097344;28;20204;-71
2022/06/28 08:27:23;;;;;;;4.30;2.40;;;;;;;17.97;83.52;66072.22;5095849;28;20554;-71
2022/06/28 08:29:50;;;;;;;2.43;2.20;;;;;;;;;;5094179;28;20197;-71
2022/06/28 08:32:17;;;;;;;2.80;2.60;;;;;;;18.09;85.81;66087.69;5094639;28;20213;-70
2022/06/28 08:34:45;;;;;;;4.03;2.17;;;;;;;18.11;84.25;66087.84;5095948;28;20199;-71
2022/06/28 08:37:12;;;;;;;2.57;2.40;;;;;;;18.17;82.62;66101.88;5112944;28;20205;-71
2022/06/28 08:39:38;;;;;;;2.60;2.50;;;;;;;;;;5111119;28;20193;-71
2022/06/28 08:42:05;;;;;;;5.53;2.50;;;;;;;;;;5114010;28;20619;-71
2022/06/28 08:44:33;;;;;;;2.37;2.27;;;;;;;;;;5112471;28;20246;-71
2022/06/28 08:47:01;;;;;;;3.83;2.60;;;;;;;18.42;85.19;66123.94;5094039;28;20659;-71
2022/06/28 08:49:41;;;;;;;2.27;2.27;;;;;;;18.38;84.79;66125.31;5108325;28;20218;-70
2022/06/28 08:52:09;;;;;;;2.30;2.30;;;;;;;;;;5109555;28;20612;-71
2022/06/28 08:54:35;;;;;;;2.63;2.53;;;;;;;;;;5108929;27;20193;-71
2022/06/28 08:57:06;;;;;;;2.80;2.60;;;;;;;;;;5113889;28;20587;-70
2022/06/28 08:59:34;;;;;;;2.20;2.10;;;;;;;18.52;81.85;66142.44;5102113;28;20246;-71
2022/06/28 09:02:06;;;;;;;2.10;2.00;;;;;;;18.60;81.04;66141.41;5113382;28;20205;-71
2022/06/28 09:04:33;;;;;;;2.73;2.03;;;;;;;;;;5107793;28;20232;-71
2022/06/28 09:06:59;;;;;;;2.43;2.37;;;;;;;;;;5107872;28;20241;-70
2022/06/28 09:09:26;;;;;;;2.20;2.10;;;;;;;18.97;79.97;66184.81;5113805;28;20246;-70
2022/06/28 09:11:53;;;;;;;2.03;2.03;;;;;;;;;;5114018;28;20694;-71
2022/06/28 09:14:22;;;;;;;2.53;2.17;;;;;;;;;;5110247;28;20233;-70
2022/06/28 09:16:49;;;;;;;2.63;2.53;;;;;;;;;;5108532;28;20216;-70
2022/06/28 09:19:16;;;;;;;2.57;2.47;;;;;;;19.36;80.35;66226.69;5093506;28;20182;-70
2022/06/28 09:21:43;;;;;;;2.33;2.33;;;;;;;;;;5093928;28;20657;-70
2022/06/28 09:24:24;;;;;;;2.73;2.30;;;;;;;;;;5093297;28;20216;-71
2022/06/28 09:26:54;;;;;;;2.60;2.60;;;;;;;;;;5093655;28;20189;-71
2022/06/28 09:29:27;;;;;;;2.37;2.27;;;;;;;19.30;78.40;66220.56;5093953;28;20204;-71
2022/06/28 09:31:53;;;;;;;2.43;2.43;;;;;;;;;;5093446;28;20267;-71
2022/06/28 09:34:19;;;;;;;3.20;3.07;;;;;;;19.26;78.82;66221.34;5093321;28;20206;-72
2022/06/28 09:36:57;;;;;;;2.90;2.70;;;;;;;;;;5093542;28;20224;-72
2022/06/28 09:39:28;;;;;;;2.77;2.57;;;;;;;19.22;77.85;66211.63;5093927;28;20535;-72
2022/06/28 09:41:56;;;;;;;2.63;2.33;;;;;;;19.19;76.31;66206.19;5093467;28;20613;-70
2022/06/28 09:44:49;;;;;;;8.90;2.80;;;;;;;;;;5093307;28;20170;-71
2022/06/28 09:47:16;;;;;;;4.00;3.10;;;;;;;;;;5093718;28;20181;-71
2022/06/28 09:49:45;;;;;;;6.70;2.70;;;;;;;;;;5093441;28;20197;-71
2022/06/28 09:52:12;;;;;;;2.97;2.83;;;;;;;;;;5093498;28;20263;-71
2022/06/28 09:54:41;;;;;;;7.53;3.00;;;;;;;19.70;75.65;66269.94;5093159;28;20255;-71
2022/06/28 09:57:11;;;;;;;2.80;2.50;;;;;;;;;;5093133;28;20230;-71
2022/06/28 09:59:37;;;;;;;1.83;1.83;;;;;;;;;;5093691;28;20205;-71
2022/06/28 10:02:04;;;;;;;2.33;2.20;;;;;;;;;;5093166;28;20210;-71
2022/06/28 10:04:31;;;;;;;2.93;2.70;;;;;;;;;;5092983;28;20214;-71
2022/06/28 10:06:58;;;;;;;2.67;1.80;;;;;;;20.47;74.04;66349.09;5093652;28;20580;-71
2022/06/28 10:09:24;;;;;;;2.43;2.33;;;;;;;20.51;72.45;66353.56;5093300;28;20687;-71
2022/06/28 10:17:45;;;;;;;2.87;2.00;;;;;;;20.83;73.93;66388.78;5095357;28;20174;-71
2022/06/28 10:20:17;;;;;;;1.70;1.60;;;;;;;20.78;73.72;66379.97;5097101;28;20635;-71
2022/06/28 10:22:44;;;;;;;1.73;1.73;;;;;;;20.65;69.34;66368.66;5102751;28;20209;-71
2022/06/28 10:25:24;;;;;;;2.03;1.90;;;;;;;20.46;69.83;66342.69;5111087;28;20216;-71
2022/06/28 10:27:52;;;;;;;2.17;2.07;;;;;;;20.21;71.55;66320.00;5111806;27;20276;-70
2022/06/28 10:30:24;;;;;;;1.80;1.80;;;;;;;20.04;70.63;66299.47;5112528;28;20193;-73
2022/06/28 10:33:06;;;;;;;3.03;1.70;;;;;;;20.03;72.01;66305.72;5079839;28;20263;-71
2022/06/28 10:35:32;;;;;;;4.33;1.93;;;;;;;20.06;71.34;66312.25;5116903;28;20181;-72
2022/06/28 10:38:10;;;;;;;5.27;1.40;;;;;;;;;;5116783;28;20181;-72
2022/06/28 10:40:45;;;;;;;2.00;1.60;;;;;;;19.97;70.68;66299.56;5116764;28;20272;-71
2022/06/28 10:43:32;;;;;;;1.83;1.83;;;;;;;;;;5115886;27;20336;-70
2022/06/28 10:46:09;;;;;;;2.00;1.40;;;;;;;;;;5122349;27;20651;-71
2022/06/28 10:48:48;;;;;;;1.40;1.37;;;;;;;20.29;68.61;66326.31;5116564;28;20197;-71
2022/06/28 10:51:16;;;;;;;1.53;1.30;;;;;;;20.39;72.02;66336.94;5119670;27;20202;-70
2022/06/28 10:53:54;;;;;;;1.37;1.37;;;;;;;20.65;69.30;66368.66;5117203;28;20211;-71
2022/06/28 10:56:21;;;;;;;1.60;1.60;;;;;;;20.89;70.64;66394.94;5114632;28;20551;-70
2022/06/28 10:58:55;;;;;;;1.60;1.60;;;;;;;;;;5114879;28;20193;-70
2022/06/28 11:01:40;;;;;;;3.23;1.37;;;;;;;21.07;70.97;66414.50;5115888;28;20189;-70
2022/06/28 11:04:07;;;;;;;1.80;1.60;;;;;;;;;;5113558;28;20623;-70
2022/06/28 11:06:40;;;;;;;1.50;1.50;;;;;;;;;;5116210;28;20185;-70
2022/06/28 11:09:18;;;;;;;4.00;1.57;;;;;;;;;;5116223;28;20671;-70
2022/06/28 11:12:07;;;;;;;2.00;1.90;;;;;;;20.80;66.41;66390.72;5112982;28;20221;-71
2022/06/28 11:14:36;;;;;;;1.70;1.70;;;;;;;;;;5116113;28;20679;-72
2022/06/28 11:17:22;;;;;;;2.27;2.17;;;;;;;20.97;69.59;66398.59;5116649;28;20634;-72
2022/06/28 11:19:53;;;;;;;2.80;1.40;;;;;;;;;;5116398;28;20173;-72
2022/06/28 11:22:21;;;;;;;4.20;1.77;;;;;;;;;;5116150;27;20262;-71
2022/06/28 11:24:47;;;;;;;3.30;1.73;;;;;;;;;;5115713;28;20233;-71
2022/06/28 11:27:20;;;;;;;1.50;1.40;;;;;;;20.80;66.88;66382.78;5124517;27;20237;-71
2022/06/28 11:29:47;;;;;;;3.37;2.00;;;;;;;;;;5123760;27;20234;-71
2022/06/28 11:32:16;;;;;;;1.30;1.30;;;;;;;21.19;66.82;66432.66;5115728;28;20209;-71
2022/06/28 11:34:42;;;;;;;2.90;1.50;;;;;;;;;;5116008;28;20209;-72
2022/06/28 11:37:09;;;;;;;1.40;1.40;;;;;;;21.38;66.61;66448.66;5115753;28;20667;-70
2022/06/28 11:39:35;;;;;;;1.40;1.40;;;;;;;21.50;65.27;66475.28;5115656;28;20222;-70
2022/06/28 11:42:01;;;;;;;1.40;1.40;;;;;;;;;;5115529;28;20228;-70
2022/06/28 11:44:28;;;;;;;1.50;1.40;;;;;;;;;;5111005;28;20240;-70
2022/06/28 11:46:54;;;;;;;2.33;1.60;;;;;;;;;;5115317;28;20217;-71
2022/06/28 11:49:31;;;;;;;2.07;2.07;;;;;;;21.50;63.29;66462.06;5114517;28;20242;-70
2022/06/28 11:51:58;;;;;;;1.80;1.70;;;;;;;;;;5107897;28;20236;-70
2022/06/28 11:54:25;;;;;;;1.70;1.70;;;;;;;;;;5114346;28;20260;-72
2022/06/28 11:56:51;;;;;;;2.27;2.00;;;;;;;;;;5113819;28;20189;-71
2022/06/28 11:59:17;;;;;;;1.40;1.40;;;;;;;;;;5112982;28;20216;-71
2022/06/28 12:01:44;;;;;;;1.30;1.30;;;;;;;21.76;61.24;66495.34;5114554;28;20234;-71
2022/06/28 12:04:19;;;;;;;1.50;1.50;;;;;;;21.85;62.65;66500.13;5110227;28;20243;-70
2022/06/28 12:06:47;;;;;;;3.20;1.53;;;;;;;;;;5112736;28;20611;-70
2022/06/28 12:09:14;;;;;;;2.03;1.87;;;;;;;;;;5113339;28;20189;-70
2022/06/28 12:11:56;;;;;;;2.17;1.80;;;;;;;22.00;58.67;66514.25;5108079;28;20276;-70
2022/06/28 12:14:31;;;;;;;2.67;1.60;;;;;;;21.88;59.72;66503.47;5114301;28;20670;-72
2022/06/28 12:17:00;;;;;;;1.37;1.37;;;;;;;21.84;58.39;66496.34;5114958;28;20230;-71
2022/06/28 12:19:27;;;;;;;3.60;1.40;;;;;;;21.83;60.08;66503.72;5133276;27;20237;-71
2022/06/28 12:22:08;;;;;;;1.57;1.50;;;;;;;22.01;59.54;66517.47;5114511;28;20265;-70
2022/06/28 12:24:40;;;;;;;1.30;1.30;;;;;;;22.13;58.13;66531.47;5108051;28;20201;-71
2022/06/28 12:27:07;;;;;;;1.97;1.70;;;;;;;22.25;57.07;66544.91;5113116;28;20219;-70
2022/06/28 12:29:33;;;;;;;3.13;2.03;;;;;;;;;;5115309;27;20250;-70
2022/06/28 12:32:00;;;;;;;1.27;1.27;;;;;;;22.22;56.99;66538.91;5122341;27;20262;-71
2022/06/28 12:34:26;;;;;;;2.97;1.30;;;;;;;22.27;56.76;66546.59;5115901;27;20181;-70
2022/06/28 12:36:53;;;;;;;1.47;1.37;;;;;;;;;;5114354;28;20548;-71
2022/06/28 12:39:19;;;;;;;1.40;1.40;;;;;;;22.31;57.84;66548.44;5114404;28;20189;-71
2022/06/28 12:41:48;;;;;;;2.30;1.70;;;;;;;22.31;55.44;66556.38;5114305;28;20229;-70
2022/06/28 12:44:15;;;;;;;1.43;1.37;;;;;;;;;;5114348;28;20209;-70
2022/06/28 12:46:41;;;;;;;1.20;1.20;;;;;;;22.42;56.76;66563.38;5114383;28;20224;-70
2022/06/28 12:49:08;;;;;;;1.17;1.17;;;;;;;22.39;56.84;66559.47;5114139;28;20655;-70
2022/06/28 12:51:35;;;;;;;1.47;1.47;;;;;;;22.36;56.83;66564.03;5114766;27;20203;-70
2022/06/28 12:54:01;;;;;;;1.80;1.80;;;;;;;;;;5110836;28;20651;-70
2022/06/28 12:56:28;;;;;;;1.70;1.60;;;;;;;22.41;56.64;66567.56;5112787;28;20189;-70